Aviation Digital Data Service (ADDS)

Output produced by METARs form (0334 UTC 19 August 2019)
found at http://www.aviationweather.gov/metar/data/
 
METAR text: RCFN 190300Z 21005KT 5000 SHRA FEW015 SCT025 BKN050 26/24 Q1007 NOSIG RMK A2975 RA AMT 1.2MM
Conditions at: RCFN (FENG NIN TW-AFB , TW) observed 0300 UTC 19 August 2019
Temperature: 26.0°C (79°F)
Dewpoint: 24.0°C (75°F) [RH = 89%]
Pressure (altimeter): 29.73 inches Hg (1007.0 mb)
Winds: from the SSW (210 degrees) at 6 MPH (5 knots; 2.6 m/s)
Visibility: 3 miles ( 5 km)
Ceiling: 5000 feet AGL
Clouds: few clouds at 1500 feet AGL
scattered clouds at 2500 feet AGL
broken clouds at 5000 feet AGL
Weather: SHRA  (rain showers)

METAR text: RCFN 190256Z 21005KT 180V240 5000 SHRA FEW015 SCT025 BKN050 27/24 Q1007 TEMPO 4000 RMK A2975
Conditions at: RCFN (FENG NIN TW-AFB , TW) observed 0256 UTC 19 August 2019
Temperature: 27.0°C (81°F)
Dewpoint: 24.0°C (75°F) [RH = 84%]
Pressure (altimeter): 29.73 inches Hg (1007.0 mb)
Winds: from the SSW (210 degrees) at 6 MPH (5 knots; 2.6 m/s)
Visibility: 3 miles ( 5 km)
Ceiling: 5000 feet AGL
Clouds: few clouds at 1500 feet AGL
scattered clouds at 2500 feet AGL
broken clouds at 5000 feet AGL
Weather: SHRA  (rain showers)

METAR text: RCFN 190230Z 20003KT 160V270 9999 -SHRA FEW020 SCT040 BKN060 29/24 Q1007 TEMPO SHRA RMK A2975
Conditions at: RCFN (FENG NIN TW-AFB , TW) observed 0230 UTC 19 August 2019
Temperature: 29.0°C (84°F)
Dewpoint: 24.0°C (75°F) [RH = 74%]
Pressure (altimeter): 29.73 inches Hg (1007.0 mb)
Winds: from the SSW (200 degrees) at 3 MPH (3 knots; 1.5 m/s)
Visibility: 6 or more miles (10+ km)
Ceiling: 6000 feet AGL
Clouds: few clouds at 2000 feet AGL
scattered clouds at 4000 feet AGL
broken clouds at 6000 feet AGL
Weather: -SHRA  (light rain showers)

METAR text: RCFN 190200Z VRB01KT 9999 VCSH FEW015 SCT045 BKN070 30/24 Q1007 NOSIG RMK A2975
Conditions at: RCFN (FENG NIN TW-AFB , TW) observed 0200 UTC 19 August 2019
Temperature: 30.0°C (86°F)
Dewpoint: 24.0°C (75°F) [RH = 70%]
Pressure (altimeter): 29.73 inches Hg (1007.0 mb)
Winds: variable direction winds at 1 MPH (1 knots; 0.5 m/s)
Visibility: 6 or more miles (10+ km)
Ceiling: 7000 feet AGL
Clouds: few clouds at 1500 feet AGL
scattered clouds at 4500 feet AGL
broken clouds at 7000 feet AGL
Weather: VCSH  (showers in vicinity)

METAR text: RCFN 190130Z VRB01KT 9999 FEW016 SCT050 BKN080 29/24 Q1007 NOSIG RMK A2975
Conditions at: RCFN (FENG NIN TW-AFB , TW) observed 0130 UTC 19 August 2019
Temperature: 29.0°C (84°F)
Dewpoint: 24.0°C (75°F) [RH = 74%]
Pressure (altimeter): 29.73 inches Hg (1007.0 mb)
Winds: variable direction winds at 1 MPH (1 knots; 0.5 m/s)
Visibility: 6 or more miles (10+ km)
Ceiling: 8000 feet AGL
Clouds: few clouds at 1600 feet AGL
scattered clouds at 5000 feet AGL
broken clouds at 8000 feet AGL
Weather: no significant weather observed at this time

METAR text: RCFN 190100Z VRB02KT 9999 FEW016 BKN080 BKN150 28/24 Q1007 NOSIG RMK A2975
Conditions at: RCFN (FENG NIN TW-AFB , TW) observed 0100 UTC 19 August 2019
Temperature: 28.0°C (82°F)
Dewpoint: 24.0°C (75°F) [RH = 79%]
Pressure (altimeter): 29.73 inches Hg (1007.0 mb)
Winds: variable direction winds at 2 MPH (2 knots; 1.0 m/s)
Visibility: 6 or more miles (10+ km)
Ceiling: 8000 feet AGL
Clouds: few clouds at 1600 feet AGL
broken clouds at 8000 feet AGL
broken clouds at 15000 feet AGL
Weather: no significant weather observed at this time

METAR text: RCFN 190030Z VRB01KT 9999 FEW015 BKN080 BKN150 28/24 Q1007 NOSIG RMK A2975
Conditions at: RCFN (FENG NIN TW-AFB , TW) observed 0030 UTC 19 August 2019
Temperature: 28.0°C (82°F)
Dewpoint: 24.0°C (75°F) [RH = 79%]
Pressure (altimeter): 29.73 inches Hg (1007.0 mb)
Winds: variable direction winds at 1 MPH (1 knots; 0.5 m/s)
Visibility: 6 or more miles (10+ km)
Ceiling: 8000 feet AGL
Clouds: few clouds at 1500 feet AGL
broken clouds at 8000 feet AGL
broken clouds at 15000 feet AGL
Weather: no significant weather observed at this time

METAR text: RCFN 190000Z VRB02KT 9999 FEW015 BKN080 BKN150 27/24 Q1006 NOSIG RMK A2973
Conditions at: RCFN (FENG NIN TW-AFB , TW) observed 0000 UTC 19 August 2019
Temperature: 27.0°C (81°F)
Dewpoint: 24.0°C (75°F) [RH = 84%]
Pressure (altimeter): 29.70 inches Hg (1006.0 mb)
Winds: variable direction winds at 2 MPH (2 knots; 1.0 m/s)
Visibility: 6 or more miles (10+ km)
Ceiling: 8000 feet AGL
Clouds: few clouds at 1500 feet AGL
broken clouds at 8000 feet AGL
broken clouds at 15000 feet AGL
Weather: no significant weather observed at this time

METAR text: RCFN 182330Z VRB02KT 9999 FEW012 BKN080 BKN150 27/24 Q1006 NOSIG RMK A2972
Conditions at: RCFN (FENG NIN TW-AFB , TW) observed 2330 UTC 18 August 2019
Temperature: 27.0°C (81°F)
Dewpoint: 24.0°C (75°F) [RH = 84%]
Pressure (altimeter): 29.70 inches Hg (1006.0 mb)
Winds: variable direction winds at 2 MPH (2 knots; 1.0 m/s)
Visibility: 6 or more miles (10+ km)
Ceiling: 8000 feet AGL
Clouds: few clouds at 1200 feet AGL
broken clouds at 8000 feet AGL
broken clouds at 15000 feet AGL
Weather: no significant weather observed at this time

METAR text: RCFN 182300Z VRB02KT 9999 FEW010 SCT045 BKN080 26/24 Q1006 NOSIG RMK A2972
Conditions at: RCFN (FENG NIN TW-AFB , TW) observed 2300 UTC 18 August 2019
Temperature: 26.0°C (79°F)
Dewpoint: 24.0°C (75°F) [RH = 89%]
Pressure (altimeter): 29.70 inches Hg (1006.0 mb)
Winds: variable direction winds at 2 MPH (2 knots; 1.0 m/s)
Visibility: 6 or more miles (10+ km)
Ceiling: 8000 feet AGL
Clouds: few clouds at 1000 feet AGL
scattered clouds at 4500 feet AGL
broken clouds at 8000 feet AGL
Weather: no significant weather observed at this time

METAR text: RCFN 182230Z VRB02KT 9999 FEW008 SCT045 BKN080 25/24 Q1006 NOSIG RMK A2972
Conditions at: RCFN (FENG NIN TW-AFB , TW) observed 2230 UTC 18 August 2019
Temperature: 25.0°C (77°F)
Dewpoint: 24.0°C (75°F) [RH = 94%]
Pressure (altimeter): 29.70 inches Hg (1006.0 mb)
Winds: variable direction winds at 2 MPH (2 knots; 1.0 m/s)
Visibility: 6 or more miles (10+ km)
Ceiling: 8000 feet AGL
Clouds: few clouds at 800 feet AGL
scattered clouds at 4500 feet AGL
broken clouds at 8000 feet AGL
Weather: no significant weather observed at this time

METAR text: RCFN 182200Z 24003KT 210V270 9999 FEW010 BKN080 BKN150 25/24 Q1006 NOSIG RMK A2972
Conditions at: RCFN (FENG NIN TW-AFB , TW) observed 2200 UTC 18 August 2019
Temperature: 25.0°C (77°F)
Dewpoint: 24.0°C (75°F) [RH = 94%]
Pressure (altimeter): 29.70 inches Hg (1006.0 mb)
Winds: from the WSW (240 degrees) at 3 MPH (3 knots; 1.5 m/s)
Visibility: 6 or more miles (10+ km)
Ceiling: 8000 feet AGL
Clouds: few clouds at 1000 feet AGL
broken clouds at 8000 feet AGL
broken clouds at 15000 feet AGL
Weather: no significant weather observed at this time

METAR text: RCFN 181300Z 32006KT 280V040 9999 -RA FEW020 BKN150 26/24 Q1006 NOSIG RMK A2973
Conditions at: RCFN (FENG NIN TW-AFB , TW) observed 1300 UTC 18 August 2019
Temperature: 26.0°C (79°F)
Dewpoint: 24.0°C (75°F) [RH = 89%]
Pressure (altimeter): 29.70 inches Hg (1006.0 mb)
Winds: from the NW (320 degrees) at 7 MPH (6 knots; 3.1 m/s)
Visibility: 6 or more miles (10+ km)
Ceiling: 15000 feet AGL
Clouds: few clouds at 2000 feet AGL
broken clouds at 15000 feet AGL
Weather: -RA  (light rain)

METAR text: RCFN 181230Z 34004KT 270V050 9999 -RA FEW020 BKN150 26/24 Q1006 NOSIG RMK A2972
Conditions at: RCFN (FENG NIN TW-AFB , TW) observed 1230 UTC 18 August 2019
Temperature: 26.0°C (79°F)
Dewpoint: 24.0°C (75°F) [RH = 89%]
Pressure (altimeter): 29.70 inches Hg (1006.0 mb)
Winds: from the NNW (340 degrees) at 5 MPH (4 knots; 2.1 m/s)
Visibility: 6 or more miles (10+ km)
Ceiling: 15000 feet AGL
Clouds: few clouds at 2000 feet AGL
broken clouds at 15000 feet AGL
Weather: -RA  (light rain)

METAR text: RCFN 181200Z 35004KT 310V030 9999 -RA FEW013 BKN100 26/24 Q1006 NOSIG RMK A2972 RA AMT 0.2MM
Conditions at: RCFN (FENG NIN TW-AFB , TW) observed 1200 UTC 18 August 2019
Temperature: 26.0°C (79°F)
Dewpoint: 24.0°C (75°F) [RH = 89%]
Pressure (altimeter): 29.70 inches Hg (1006.0 mb)
Winds: from the N (350 degrees) at 5 MPH (4 knots; 2.1 m/s)
Visibility: 6 or more miles (10+ km)
Ceiling: 10000 feet AGL
Clouds: few clouds at 1300 feet AGL
broken clouds at 10000 feet AGL
Weather: -RA  (light rain)

METAR text: RCFN 181130Z VRB01KT 9999 -RA FEW013 BKN110 27/25 Q1006 NOSIG RMK A2972
Conditions at: RCFN (FENG NIN TW-AFB , TW) observed 1130 UTC 18 August 2019
Temperature: 27.0°C (81°F)
Dewpoint: 25.0°C (77°F) [RH = 89%]
Pressure (altimeter): 29.70 inches Hg (1006.0 mb)
Winds: variable direction winds at 1 MPH (1 knots; 0.5 m/s)
Visibility: 6 or more miles (10+ km)
Ceiling: 11000 feet AGL
Clouds: few clouds at 1300 feet AGL
broken clouds at 11000 feet AGL
Weather: -RA  (light rain)

METAR text: RCFN 181100Z 34001KT 9999 -RA FEW013 SCT042 BKN110 27/25 Q1006 NOSIG RMK A2972
Conditions at: RCFN (FENG NIN TW-AFB , TW) observed 1100 UTC 18 August 2019
Temperature: 27.0°C (81°F)
Dewpoint: 25.0°C (77°F) [RH = 89%]
Pressure (altimeter): 29.70 inches Hg (1006.0 mb)
Winds: from the NNW (340 degrees) at 1 MPH (1 knots; 0.5 m/s)
Visibility: 6 or more miles (10+ km)
Ceiling: 11000 feet AGL
Clouds: few clouds at 1300 feet AGL
scattered clouds at 4200 feet AGL
broken clouds at 11000 feet AGL
Weather: -RA  (light rain)

METAR text: RCFN 181030Z 00000KT 9999 -RA FEW013 SCT035 BKN110 27/25 Q1006 NOSIG RMK A2971
Conditions at: RCFN (FENG NIN TW-AFB , TW) observed 1030 UTC 18 August 2019
Temperature: 27.0°C (81°F)
Dewpoint: 25.0°C (77°F) [RH = 89%]
Pressure (altimeter): 29.70 inches Hg (1006.0 mb)
Winds: calm
Visibility: 6 or more miles (10+ km)
Ceiling: 11000 feet AGL
Clouds: few clouds at 1300 feet AGL
scattered clouds at 3500 feet AGL
broken clouds at 11000 feet AGL
Weather: -RA  (light rain)

METAR text: RCFN 181000Z VRB01KT 9999 -RA FEW025 SCT069 BKN120 27/25 Q1006 NOSIG RMK A2971 RA AMT 0.2MM
Conditions at: RCFN (FENG NIN TW-AFB , TW) observed 1000 UTC 18 August 2019
Temperature: 27.0°C (81°F)
Dewpoint: 25.0°C (77°F) [RH = 89%]
Pressure (altimeter): 29.70 inches Hg (1006.0 mb)
Winds: variable direction winds at 1 MPH (1 knots; 0.5 m/s)
Visibility: 6 or more miles (10+ km)
Ceiling: 12000 feet AGL
Clouds: few clouds at 2500 feet AGL
scattered clouds at 6900 feet AGL
broken clouds at 12000 feet AGL
Weather: -RA  (light rain)

METAR text: RCFN 180930Z 35003KT 300V050 9999 -RA FEW015 SCT062 BKN120 27/25 Q1005 NOSIG RMK A2969
Conditions at: RCFN (FENG NIN TW-AFB , TW) observed 0930 UTC 18 August 2019
Temperature: 27.0°C (81°F)
Dewpoint: 25.0°C (77°F) [RH = 89%]
Pressure (altimeter): 29.68 inches Hg (1005.0 mb)
Winds: from the N (350 degrees) at 3 MPH (3 knots; 1.5 m/s)
Visibility: 6 or more miles (10+ km)
Ceiling: 12000 feet AGL
Clouds: few clouds at 1500 feet AGL
scattered clouds at 6200 feet AGL
broken clouds at 12000 feet AGL
Weather: -RA  (light rain)

METAR text: RCFN 180900Z VRB02KT 9999 -RA FEW014 SCT030 BKN120 28/25 Q1005 NOSIG RMK A2969
Conditions at: RCFN (FENG NIN TW-AFB , TW) observed 0900 UTC 18 August 2019
Temperature: 28.0°C (82°F)
Dewpoint: 25.0°C (77°F) [RH = 84%]
Pressure (altimeter): 29.68 inches Hg (1005.0 mb)
Winds: variable direction winds at 2 MPH (2 knots; 1.0 m/s)
Visibility: 6 or more miles (10+ km)
Ceiling: 12000 feet AGL
Clouds: few clouds at 1400 feet AGL
scattered clouds at 3000 feet AGL
broken clouds at 12000 feet AGL
Weather: -RA  (light rain)

METAR text: RCFN 180830Z VRB01KT 9999 -RA FEW016 SCT028 BKN100 28/24 Q1005 NOSIG RMK A2969
Conditions at: RCFN (FENG NIN TW-AFB , TW) observed 0830 UTC 18 August 2019
Temperature: 28.0°C (82°F)
Dewpoint: 24.0°C (75°F) [RH = 79%]
Pressure (altimeter): 29.68 inches Hg (1005.0 mb)
Winds: variable direction winds at 1 MPH (1 knots; 0.5 m/s)
Visibility: 6 or more miles (10+ km)
Ceiling: 10000 feet AGL
Clouds: few clouds at 1600 feet AGL
scattered clouds at 2800 feet AGL
broken clouds at 10000 feet AGL
Weather: -RA  (light rain)

METAR text: RCFN 180800Z 22003KT 190V250 9999 -RA FEW013 SCT028 BKN100 28/25 Q1005 NOSIG RMK A2969
Conditions at: RCFN (FENG NIN TW-AFB , TW) observed 0800 UTC 18 August 2019
Temperature: 28.0°C (82°F)
Dewpoint: 25.0°C (77°F) [RH = 84%]
Pressure (altimeter): 29.68 inches Hg (1005.0 mb)
Winds: from the SW (220 degrees) at 3 MPH (3 knots; 1.5 m/s)
Visibility: 6 or more miles (10+ km)
Ceiling: 10000 feet AGL
Clouds: few clouds at 1300 feet AGL
scattered clouds at 2800 feet AGL
broken clouds at 10000 feet AGL
Weather: -RA  (light rain)

METAR text: RCFN 180730Z VRB02KT 9999 -RA FEW015 SCT021 BKN120 29/25 Q1005 NOSIG RMK A2969
Conditions at: RCFN (FENG NIN TW-AFB , TW) observed 0730 UTC 18 August 2019
Temperature: 29.0°C (84°F)
Dewpoint: 25.0°C (77°F) [RH = 79%]
Pressure (altimeter): 29.68 inches Hg (1005.0 mb)
Winds: variable direction winds at 2 MPH (2 knots; 1.0 m/s)
Visibility: 6 or more miles (10+ km)
Ceiling: 12000 feet AGL
Clouds: few clouds at 1500 feet AGL
scattered clouds at 2100 feet AGL
broken clouds at 12000 feet AGL
Weather: -RA  (light rain)

METAR text: RCFN 180700Z 19003KT 9999 -RA FEW013 SCT019 BKN120 28/25 Q1005 NOSIG RMK A2969
Conditions at: RCFN (FENG NIN TW-AFB , TW) observed 0700 UTC 18 August 2019
Temperature: 28.0°C (82°F)
Dewpoint: 25.0°C (77°F) [RH = 84%]
Pressure (altimeter): 29.68 inches Hg (1005.0 mb)
Winds: from the S (190 degrees) at 3 MPH (3 knots; 1.5 m/s)
Visibility: 6 or more miles (10+ km)
Ceiling: 12000 feet AGL
Clouds: few clouds at 1300 feet AGL
scattered clouds at 1900 feet AGL
broken clouds at 12000 feet AGL
Weather: -RA  (light rain)

METAR text: RCFN 180630Z 20005KT 170V230 9999 -RA FEW013 SCT019 BKN120 29/25 Q1005 NOSIG RMK A2969
Conditions at: RCFN (FENG NIN TW-AFB , TW) observed 0630 UTC 18 August 2019
Temperature: 29.0°C (84°F)
Dewpoint: 25.0°C (77°F) [RH = 79%]
Pressure (altimeter): 29.68 inches Hg (1005.0 mb)
Winds: from the SSW (200 degrees) at 6 MPH (5 knots; 2.6 m/s)
Visibility: 6 or more miles (10+ km)
Ceiling: 12000 feet AGL
Clouds: few clouds at 1300 feet AGL
scattered clouds at 1900 feet AGL
broken clouds at 12000 feet AGL
Weather: -RA  (light rain)

METAR text: RCFN 180600Z 19005KT 160V220 9999 -RA FEW009 SCT020 BKN120 29/26 Q1005 NOSIG RMK A2970
Conditions at: RCFN (FENG NIN TW-AFB , TW) observed 0600 UTC 18 August 2019
Temperature: 29.0°C (84°F)
Dewpoint: 26.0°C (79°F) [RH = 84%]
Pressure (altimeter): 29.68 inches Hg (1005.0 mb)
Winds: from the S (190 degrees) at 6 MPH (5 knots; 2.6 m/s)
Visibility: 6 or more miles (10+ km)
Ceiling: 12000 feet AGL
Clouds: few clouds at 900 feet AGL
scattered clouds at 2000 feet AGL
broken clouds at 12000 feet AGL
Weather: -RA  (light rain)

METAR text: RCFN 180554Z 18006KT 160V220 9999 -RA FEW014 SCT020 BKN120 29/26 Q1005 NOSIG RMK A2970
Conditions at: RCFN (FENG NIN TW-AFB , TW) observed 0554 UTC 18 August 2019
Temperature: 29.0°C (84°F)
Dewpoint: 26.0°C (79°F) [RH = 84%]
Pressure (altimeter): 29.68 inches Hg (1005.0 mb)
Winds: from the S (180 degrees) at 7 MPH (6 knots; 3.1 m/s)
Visibility: 6 or more miles (10+ km)
Ceiling: 12000 feet AGL
Clouds: few clouds at 1400 feet AGL
scattered clouds at 2000 feet AGL
broken clouds at 12000 feet AGL
Weather: -RA  (light rain)

METAR text: RCFN 180530Z VRB02KT 9999 FEW016 SCT025 BKN120 30/25 Q1006 NOSIG RMK A2971
Conditions at: RCFN (FENG NIN TW-AFB , TW) observed 0530 UTC 18 August 2019
Temperature: 30.0°C (86°F)
Dewpoint: 25.0°C (77°F) [RH = 75%]
Pressure (altimeter): 29.70 inches Hg (1006.0 mb)
Winds: variable direction winds at 2 MPH (2 knots; 1.0 m/s)
Visibility: 6 or more miles (10+ km)
Ceiling: 12000 feet AGL
Clouds: few clouds at 1600 feet AGL
scattered clouds at 2500 feet AGL
broken clouds at 12000 feet AGL
Weather: no significant weather observed at this time

METAR text: RCFN 180500Z VRB02KT 9999 -RA FEW012 BKN100 30/25 Q1006 NOSIG RMK A2972 RA AMT 0.2MM
Conditions at: RCFN (FENG NIN TW-AFB , TW) observed 0500 UTC 18 August 2019
Temperature: 30.0°C (86°F)
Dewpoint: 25.0°C (77°F) [RH = 75%]
Pressure (altimeter): 29.70 inches Hg (1006.0 mb)
Winds: variable direction winds at 2 MPH (2 knots; 1.0 m/s)
Visibility: 6 or more miles (10+ km)
Ceiling: 10000 feet AGL
Clouds: few clouds at 1200 feet AGL
broken clouds at 10000 feet AGL
Weather: -RA  (light rain)

METAR text: RCFN 180430Z VRB02KT 9999 -RA FEW010 BKN100 29/26 Q1006 NOSIG RMK A2972
Conditions at: RCFN (FENG NIN TW-AFB , TW) observed 0430 UTC 18 August 2019
Temperature: 29.0°C (84°F)
Dewpoint: 26.0°C (79°F) [RH = 84%]
Pressure (altimeter): 29.70 inches Hg (1006.0 mb)
Winds: variable direction winds at 2 MPH (2 knots; 1.0 m/s)
Visibility: 6 or more miles (10+ km)
Ceiling: 10000 feet AGL
Clouds: few clouds at 1000 feet AGL
broken clouds at 10000 feet AGL
Weather: -RA  (light rain)

METAR text: RCFN 180400Z VRB02KT 9000 -RA FEW015 BKN100 28/25 Q1006 NOSIG RMK A2973 RA AMT 0.2MM
Conditions at: RCFN (FENG NIN TW-AFB , TW) observed 0400 UTC 18 August 2019
Temperature: 28.0°C (82°F)
Dewpoint: 25.0°C (77°F) [RH = 84%]
Pressure (altimeter): 29.70 inches Hg (1006.0 mb)
Winds: variable direction winds at 2 MPH (2 knots; 1.0 m/s)
Visibility: 6 miles ( 9 km)
Ceiling: 10000 feet AGL
Clouds: few clouds at 1500 feet AGL
broken clouds at 10000 feet AGL
Weather: -RA  (light rain)

METAR text: RCFN 180330Z 22006KT 190V250 7000 3000S -RA FEW015 SCT025 BKN050 28/25 Q1007 NOSIG RMK A2975
Conditions at: RCFN (FENG NIN TW-AFB , TW) observed 0330 UTC 18 August 2019
Temperature: 28.0°C (82°F)
Dewpoint: 25.0°C (77°F) [RH = 84%]
Pressure (altimeter): 29.73 inches Hg (1007.0 mb)
Winds: from the SW (220 degrees) at 7 MPH (6 knots; 3.1 m/s)
Visibility: 4 miles ( 7 km)
Ceiling: 5000 feet AGL
Clouds: few clouds at 1500 feet AGL
scattered clouds at 2500 feet AGL
broken clouds at 5000 feet AGL
Weather: -RA  (light rain)

METAR text: RCFN 180318Z 19005KT 5000 -RA FEW015 SCT025 BKN050 29/25 Q1007 NOSIG RMK A2976
Conditions at: RCFN (FENG NIN TW-AFB , TW) observed 0318 UTC 18 August 2019
Temperature: 29.0°C (84°F)
Dewpoint: 25.0°C (77°F) [RH = 79%]
Pressure (altimeter): 29.73 inches Hg (1007.0 mb)
Winds: from the S (190 degrees) at 6 MPH (5 knots; 2.6 m/s)
Visibility: 3 miles ( 5 km)
Ceiling: 5000 feet AGL
Clouds: few clouds at 1500 feet AGL
scattered clouds at 2500 feet AGL
broken clouds at 5000 feet AGL
Weather: -RA  (light rain)

METAR text: RCFN 180300Z 17008KT 9999 -RA FEW015 SCT030 BKN090 29/25 Q1007 NOSIG RMK A2976
Conditions at: RCFN (FENG NIN TW-AFB , TW) observed 0300 UTC 18 August 2019
Temperature: 29.0°C (84°F)
Dewpoint: 25.0°C (77°F) [RH = 79%]
Pressure (altimeter): 29.73 inches Hg (1007.0 mb)
Winds: from the S (170 degrees) at 9 MPH (8 knots; 4.1 m/s)
Visibility: 6 or more miles (10+ km)
Ceiling: 9000 feet AGL
Clouds: few clouds at 1500 feet AGL
scattered clouds at 3000 feet AGL
broken clouds at 9000 feet AGL
Weather: -RA  (light rain)

METAR text: RCFN 180230Z 18003KT 130V220 9999 -RA FEW020 BKN090 31/25 Q1007 NOSIG RMK A2975
Conditions at: RCFN (FENG NIN TW-AFB , TW) observed 0230 UTC 18 August 2019
Temperature: 31.0°C (88°F)
Dewpoint: 25.0°C (77°F) [RH = 71%]
Pressure (altimeter): 29.73 inches Hg (1007.0 mb)
Winds: from the S (180 degrees) at 3 MPH (3 knots; 1.5 m/s)
Visibility: 6 or more miles (10+ km)
Ceiling: 9000 feet AGL
Clouds: few clouds at 2000 feet AGL
broken clouds at 9000 feet AGL
Weather: -RA  (light rain)

METAR text: RCFN 180200Z 17003KT 120V250 9999 -RA FEW025 SCT090 BKN150 30/25 Q1007 NOSIG RMK A2974
Conditions at: RCFN (FENG NIN TW-AFB , TW) observed 0200 UTC 18 August 2019
Temperature: 30.0°C (86°F)
Dewpoint: 25.0°C (77°F) [RH = 75%]
Pressure (altimeter): 29.73 inches Hg (1007.0 mb)
Winds: from the S (170 degrees) at 3 MPH (3 knots; 1.5 m/s)
Visibility: 6 or more miles (10+ km)
Ceiling: 15000 feet AGL
Clouds: few clouds at 2500 feet AGL
scattered clouds at 9000 feet AGL
broken clouds at 15000 feet AGL
Weather: -RA  (light rain)

METAR text: RCFN 180130Z VRB01KT 9999 FEW025 SCT120 31/24 Q1007 NOSIG RMK A2974
Conditions at: RCFN (FENG NIN TW-AFB , TW) observed 0130 UTC 18 August 2019
Temperature: 31.0°C (88°F)
Dewpoint: 24.0°C (75°F) [RH = 66%]
Pressure (altimeter): 29.73 inches Hg (1007.0 mb)
Winds: variable direction winds at 1 MPH (1 knots; 0.5 m/s)
Visibility: 6 or more miles (10+ km)
Ceiling: at least 12,000 feet AGL
Clouds: few clouds at 2500 feet AGL
scattered clouds at 12000 feet AGL
Weather: no significant weather observed at this time

METAR text: RCFN 180100Z 34003KT 270V030 9999 FEW025 SCT120 31/24 Q1006 NOSIG RMK A2973
Conditions at: RCFN (FENG NIN TW-AFB , TW) observed 0100 UTC 18 August 2019
Temperature: 31.0°C (88°F)
Dewpoint: 24.0°C (75°F) [RH = 66%]
Pressure (altimeter): 29.70 inches Hg (1006.0 mb)
Winds: from the NNW (340 degrees) at 3 MPH (3 knots; 1.5 m/s)
Visibility: 6 or more miles (10+ km)
Ceiling: at least 12,000 feet AGL
Clouds: few clouds at 2500 feet AGL
scattered clouds at 12000 feet AGL
Weather: no significant weather observed at this time

METAR text: RCFN 180030Z VRB02KT 9999 FEW020 SCT120 30/24 Q1007 NOSIG RMK A2974
Conditions at: RCFN (FENG NIN TW-AFB , TW) observed 0030 UTC 18 August 2019
Temperature: 30.0°C (86°F)
Dewpoint: 24.0°C (75°F) [RH = 70%]
Pressure (altimeter): 29.73 inches Hg (1007.0 mb)
Winds: variable direction winds at 2 MPH (2 knots; 1.0 m/s)
Visibility: 6 or more miles (10+ km)
Ceiling: at least 12,000 feet AGL
Clouds: few clouds at 2000 feet AGL
scattered clouds at 12000 feet AGL
Weather: no significant weather observed at this time

METAR text: RCFN 180000Z 34003KT 300V030 9999 FEW030 SCT120 29/25 Q1006 NOSIG RMK A2973
Conditions at: RCFN (FENG NIN TW-AFB , TW) observed 0000 UTC 18 August 2019
Temperature: 29.0°C (84°F)
Dewpoint: 25.0°C (77°F) [RH = 79%]
Pressure (altimeter): 29.70 inches Hg (1006.0 mb)
Winds: from the NNW (340 degrees) at 3 MPH (3 knots; 1.5 m/s)
Visibility: 6 or more miles (10+ km)
Ceiling: at least 12,000 feet AGL
Clouds: few clouds at 3000 feet AGL
scattered clouds at 12000 feet AGL
Weather: no significant weather observed at this time

METAR text: RCFN 172330Z 34003KT 300V030 9999 VCSH FEW025 SCT120 28/24 Q1006 NOSIG RMK A2973
Conditions at: RCFN (FENG NIN TW-AFB , TW) observed 2330 UTC 17 August 2019
Temperature: 28.0°C (82°F)
Dewpoint: 24.0°C (75°F) [RH = 79%]
Pressure (altimeter): 29.70 inches Hg (1006.0 mb)
Winds: from the NNW (340 degrees) at 3 MPH (3 knots; 1.5 m/s)
Visibility: 6 or more miles (10+ km)
Ceiling: at least 12,000 feet AGL
Clouds: few clouds at 2500 feet AGL
scattered clouds at 12000 feet AGL
Weather: VCSH  (showers in vicinity)

METAR text: RCFN 172300Z VRB01KT 9999 FEW025 SCT120 27/24 Q1006 NOSIG RMK A2973
Conditions at: RCFN (FENG NIN TW-AFB , TW) observed 2300 UTC 17 August 2019
Temperature: 27.0°C (81°F)
Dewpoint: 24.0°C (75°F) [RH = 84%]
Pressure (altimeter): 29.70 inches Hg (1006.0 mb)
Winds: variable direction winds at 1 MPH (1 knots; 0.5 m/s)
Visibility: 6 or more miles (10+ km)
Ceiling: at least 12,000 feet AGL
Clouds: few clouds at 2500 feet AGL
scattered clouds at 12000 feet AGL
Weather: no significant weather observed at this time

METAR text: RCFN 172230Z 01003KT 300V060 9999 FEW025 BKN150 27/24 Q1006 NOSIG RMK A2972
Conditions at: RCFN (FENG NIN TW-AFB , TW) observed 2230 UTC 17 August 2019
Temperature: 27.0°C (81°F)
Dewpoint: 24.0°C (75°F) [RH = 84%]
Pressure (altimeter): 29.70 inches Hg (1006.0 mb)
Winds: from the N (10 degrees) at 3 MPH (3 knots; 1.5 m/s)
Visibility: 6 or more miles (10+ km)
Ceiling: 15000 feet AGL
Clouds: few clouds at 2500 feet AGL
broken clouds at 15000 feet AGL
Weather: no significant weather observed at this time

METAR text: RCFN 172200Z VRB02KT 9999 FEW020 BKN150 26/24 Q1006 NOSIG RMK A2971
Conditions at: RCFN (FENG NIN TW-AFB , TW) observed 2200 UTC 17 August 2019
Temperature: 26.0°C (79°F)
Dewpoint: 24.0°C (75°F) [RH = 89%]
Pressure (altimeter): 29.70 inches Hg (1006.0 mb)
Winds: variable direction winds at 2 MPH (2 knots; 1.0 m/s)
Visibility: 6 or more miles (10+ km)
Ceiling: 15000 feet AGL
Clouds: few clouds at 2000 feet AGL
broken clouds at 15000 feet AGL
Weather: no significant weather observed at this time

METAR text: RCFN 172100Z 33003KT 290V030 CAVOK 26/24 Q1005 NOSIG RMK A2969
Conditions at: RCFN (FENG NIN TW-AFB , TW) observed 2100 UTC 17 August 2019
Temperature: 26.0°C (79°F)
Dewpoint: 24.0°C (75°F) [RH = 89%]
Pressure (altimeter): 29.68 inches Hg (1005.0 mb)
Winds: from the NNW (330 degrees) at 3 MPH (3 knots; 1.5 m/s)
Visibility: 6 or more miles (10+ km)
Ceiling: ceiling and visibility are OK
Clouds: unknown
Weather: no significant weather observed at this time

METAR text: RCFN 172055Z 31003KT 280V360 CAVOK 26/24 Q1005 NOSIG RMK A2970
Conditions at: RCFN (FENG NIN TW-AFB , TW) observed 2055 UTC 17 August 2019
Temperature: 26.0°C (79°F)
Dewpoint: 24.0°C (75°F) [RH = 89%]
Pressure (altimeter): 29.68 inches Hg (1005.0 mb)
Winds: from the NW (310 degrees) at 3 MPH (3 knots; 1.5 m/s)
Visibility: 6 or more miles (10+ km)
Ceiling: ceiling and visibility are OK
Clouds: unknown
Weather: no significant weather observed at this time

Forecast for: RCFN (FENG NIN TW-AFB , TW)
Text: TAF RCFN 182300Z 1900/1924 21005KT 9999 FEW015 BKN032
Forecast period: 0000 to 1200 UTC 19 August 2019
Forecast type: FROM: standard forecast or significant change
Winds: from the SSW (210 degrees) at 6 MPH (5 knots; 2.6 m/s)
Visibility: 6 or more miles 10+ km)
Ceiling: 3200 feet AGL
Clouds: few clouds at 1500 feet AGL
broken clouds at 3200 feet AGL
Weather: no significant weather forecast for this period
Text: TEMPO 1900/1906 07005KT FEW012 BKN022 BKN050
Forecast period: 0000 to 0600 UTC 19 August 2019
Forecast type: TEMPORARY: The following changes expected for less than half the time period
Winds: from the ENE (70 degrees) at 6 MPH (5 knots; 2.6 m/s)
Visibility: missing
Ceiling: 2200 feet AGL
Clouds: few clouds at 1200 feet AGL
broken clouds at 2200 feet AGL
broken clouds at 5000 feet AGL
Weather: no significant weather forecast for this period
Text: TEMPO 1906/1912 08005KT 5000 SHRA FEW010 FEW015TCU BKN020 BKN040
Forecast period: 0600 to 1200 UTC 19 August 2019
Forecast type: TEMPORARY: The following changes expected for less than half the time period
Winds: from the E (80 degrees) at 6 MPH (5 knots; 2.6 m/s)
Visibility: 3 miles (5 km)
Ceiling: 2000 feet AGL
Clouds: few clouds at 1000 feet AGL
few clouds at 1500 feet AGL
broken clouds at 2000 feet AGL
Weather: SHRA  (rain showers)
Text: BECMG 1912/1914 32005KT
Forecast period: 1200 UTC 19 August 2019 to 0000 UTC 20 August 2019
Forecast type: BECOMING: Conditions expected to become as follows by 1400 UTC 19 August 2019
Winds: from the NW (320 degrees) at 6 MPH (5 knots; 2.6 m/s)
Visibility: 6 or more miles 10+ km)
Ceiling: 3200 feet AGL
Clouds: few clouds at 1500 feet AGL
broken clouds at 3200 feet AGL
Weather: no significant weather forecast for this period